createdAt,value
2023-09-11T00:02:26.017Z,23.845637583892618
2023-09-11T00:06:04.030Z,22.16778523489933
2023-09-11T00:12:14.462Z,20.845637583892618
2023-09-11T00:15:33.948Z,20.483221476510067
2023-09-11T00:18:53.989Z,24.006711409395972
2023-09-11T00:22:13.976Z,20.91946308724832
2023-09-11T00:26:49.103Z,24.65771812080537
2023-09-11T00:30:08.956Z,27.161073825503355
2023-09-11T00:33:29.144Z,20.91275167785235
2023-09-11T00:36:49.126Z,25.248322147651006
2023-09-11T00:40:08.787Z,25.624161073825505
2023-09-11T00:47:53.131Z,23.19463087248322
2023-09-11T00:51:12.771Z,23.61744966442953
2023-09-11T00:54:31.525Z,28.053691275167786
2023-09-11T00:57:50.609Z,24.06040268456376
2023-09-11T01:01:10.177Z,22.778523489932887
2023-09-11T01:04:30.255Z,27.302013422818792
2023-09-11T01:10:12.875Z,22.610738255033556
2023-09-11T01:13:32.507Z,24.335570469798657
2023-09-11T01:16:52.702Z,24.966442953020135
2023-09-11T01:20:13.010Z,23.449664429530202
2023-09-11T01:23:32.639Z,27.516778523489933
2023-09-11T01:26:52.516Z,24.93959731543624
2023-09-11T01:30:11.730Z,23.926174496644297
2023-09-11T01:37:52.966Z,24.28187919463087
2023-09-11T01:43:35.208Z,23.845637583892618
2023-09-11T01:46:54.300Z,21.38255033557047
2023-09-11T01:50:14.161Z,19.61744966442953
2023-09-11T01:53:33.576Z,19.71812080536913
2023-09-11T01:56:54.036Z,21.711409395973153
2023-09-11T02:00:14.252Z,14.060402684563758
2023-09-11T02:03:34.278Z,16.322147651006713
2023-09-11T02:06:54.219Z,16.073825503355703
2023-09-11T02:11:50.617Z,15.201342281879194
2023-09-11T02:15:10.113Z,19.550335570469798
2023-09-11T02:18:29.951Z,15.342281879194632
2023-09-11T02:21:49.272Z,20.328859060402685
2023-09-11T02:25:08.949Z,17.93959731543624
2023-09-11T02:28:28.953Z,17.261744966442954
2023-09-11T02:31:51.799Z,13.114093959731544
2023-09-11T02:35:11.655Z,14.48993288590604
2023-09-11T02:38:31.556Z,13.59731543624161
2023-09-11T02:47:57.975Z,14.724832214765101
2023-09-11T02:51:17.932Z,12.248322147651006
2023-09-11T02:56:31.601Z,11.832214765100671
2023-09-11T02:59:51.568Z,13.228187919463087
2023-09-11T03:03:11.577Z,14.201342281879194
2023-09-11T03:06:31.639Z,14.671140939597315
2023-09-11T03:09:51.526Z,12.503355704697986
2023-09-11T03:13:11.444Z,16.496644295302012
2023-09-11T03:16:31.153Z,15.167785234899329
2023-09-11T03:19:50.653Z,11.523489932885907
2023-09-11T03:26:55.991Z,12.59731543624161
2023-09-11T03:30:15.596Z,12.859060402684564
2023-09-11T03:36:15.511Z,17.738255033557046
2023-09-11T03:39:52.820Z,16.590604026845636
2023-09-11T03:43:12.087Z,17.91275167785235
2023-09-11T03:46:32.116Z,17.906040268456376
2023-09-11T03:53:49.761Z,16.61744966442953
2023-09-11T03:57:09.207Z,16.38255033557047
2023-09-11T04:00:28.683Z,16.20805369127517
2023-09-11T04:03:48.084Z,18.677852348993287
2023-09-11T04:07:07.654Z,16.677852348993287
2023-09-11T04:11:50.260Z,12.51006711409396
2023-09-11T04:16:35.289Z,18.0
2023-09-11T04:21:42.331Z,13.906040268456376
2023-09-11T04:25:02.168Z,14.14765100671141
2023-09-11T04:28:41.280Z,15.241610738255034
2023-09-11T04:32:01.341Z,13.791946308724832
2023-09-11T04:35:20.979Z,13.986577181208053
2023-09-11T04:38:40.991Z,14.201342281879194
2023-09-11T04:42:00.805Z,16.389261744966444
2023-09-11T04:45:20.753Z,15.771812080536913
2023-09-11T04:48:39.937Z,16.221476510067113
2023-09-11T04:51:59.726Z,15.973154362416107
2023-09-11T04:55:19.510Z,10.288590604026846
2023-09-11T04:59:26.441Z,14.939597315436242
2023-09-11T05:02:46.495Z,11.993288590604028
2023-09-11T05:06:06.286Z,16.40268456375839
2023-09-11T05:09:25.968Z,12.557046979865772
2023-09-11T05:12:45.327Z,14.644295302013424
2023-09-11T05:16:05.655Z,12.221476510067115
2023-09-11T05:19:25.215Z,13.21476510067114
2023-09-11T05:22:50.100Z,13.953020134228188
2023-09-11T05:26:09.969Z,12.25503355704698
2023-09-11T05:29:29.811Z,14.51006711409396
2023-09-11T05:32:49.515Z,13.21476510067114
2023-09-11T05:36:09.412Z,15.939597315436242
2023-09-11T05:39:29.003Z,12.691275167785236
2023-09-11T05:42:50.056Z,11.87248322147651
2023-09-11T05:46:09.112Z,12.718120805369127
2023-09-11T05:49:28.956Z,13.100671140939598
2023-09-11T05:52:49.314Z,13.335570469798657
2023-09-11T05:56:08.950Z,10.442953020134228
2023-09-11T05:59:28.038Z,12.825503355704697
2023-09-11T06:02:48.130Z,13.275167785234899
2023-09-11T06:11:43.646Z,12.577181208053691
2023-09-11T06:15:03.842Z,9.335570469798657
2023-09-11T06:18:23.489Z,11.691275167785236
2023-09-11T06:21:42.924Z,16.483221476510067
2023-09-11T06:29:44.182Z,12.234899328859061
2023-09-11T06:33:04.518Z,14.033557046979865
2023-09-11T06:36:23.815Z,14.93288590604027
2023-09-11T06:39:43.602Z,11.59731543624161
2023-09-11T06:43:03.810Z,10.563758389261745
2023-09-11T06:46:23.906Z,13.288590604026846
2023-09-11T06:49:43.768Z,13.812080536912752
2023-09-11T06:53:03.895Z,12.348993288590604
2023-09-11T06:56:23.740Z,9.691275167785236
2023-09-11T06:59:43.454Z,12.859060402684564
2023-09-11T07:04:01.266Z,12.885906040268456
2023-09-11T07:07:20.835Z,11.577181208053691
2023-09-11T07:10:41.942Z,13.583892617449665
2023-09-11T07:16:42.704Z,11.167785234899329
2023-09-11T07:20:02.382Z,11.080536912751677
2023-09-11T07:23:22.472Z,10.718120805369127
2023-09-11T07:26:42.011Z,13.12751677852349
2023-09-11T07:30:01.060Z,13.194630872483222
2023-09-11T07:34:24.708Z,12.684563758389261
2023-09-11T07:37:45.149Z,8.731543624161073
2023-09-11T07:41:05.072Z,8.85234899328859
2023-09-11T07:44:24.880Z,10.114093959731544
2023-09-11T07:47:44.374Z,9.912751677852349
2023-09-11T07:51:03.945Z,8.020134228187919
2023-09-11T07:54:23.387Z,9.154362416107382
2023-09-11T07:57:42.872Z,8.557046979865772
2023-09-11T08:01:02.656Z,10.496644295302014
2023-09-11T08:07:48.137Z,9.241610738255034
2023-09-11T08:11:08.032Z,9.899328859060402
2023-09-11T08:14:28.029Z,8.201342281879194
2023-09-11T08:17:48.313Z,6.523489932885906
2023-09-11T08:21:08.034Z,11.161073825503356
2023-09-11T08:24:27.669Z,8.691275167785236
2023-09-11T08:27:47.644Z,8.395973154362416
2023-09-11T08:31:06.787Z,7.355704697986577
2023-09-11T08:34:26.409Z,5.402684563758389
2023-09-11T08:37:46.630Z,8.691275167785236
2023-09-11T08:42:38.341Z,8.12751677852349
2023-09-11T08:45:58.571Z,6.476510067114094
2023-09-11T08:49:17.384Z,8.583892617449665
2023-09-11T08:52:36.670Z,8.536912751677852
2023-09-11T08:55:56.941Z,8.36241610738255
2023-09-11T08:59:17.600Z,8.100671140939598
2023-09-11T09:03:59.209Z,7.073825503355705
2023-09-11T09:07:18.744Z,8.174496644295303
2023-09-11T09:10:38.201Z,6.006711409395973
2023-09-11T09:13:58.094Z,5.651006711409396
2023-09-11T09:17:17.970Z,6.409395973154362
2023-09-11T09:22:54.955Z,8.04026845637584
2023-09-11T09:26:15.856Z,9.12751677852349
2023-09-11T09:29:50.817Z,3.1476510067114094
2023-09-11T09:33:10.696Z,6.25503355704698
2023-09-11T09:36:30.784Z,8.463087248322148
2023-09-11T09:39:50.773Z,7.583892617449664
2023-09-11T09:43:10.347Z,5.932885906040268
2023-09-11T09:49:01.695Z,7.691275167785235
2023-09-11T09:52:21.255Z,7.751677852348993
2023-09-11T09:59:51.155Z,5.134228187919463
2023-09-11T10:05:01.637Z,6.785234899328859
2023-09-11T10:08:21.263Z,6.832214765100671
2023-09-11T10:11:40.746Z,6.852348993288591
2023-09-11T10:15:00.747Z,5.033557046979865
2023-09-11T10:18:19.960Z,6.879194630872483
2023-09-11T10:21:39.974Z,5.885906040268456
2023-09-11T10:26:26.791Z,10.865771812080537
2023-09-11T10:29:46.935Z,5.778523489932886
2023-09-11T10:33:07.029Z,4.805369127516778
2023-09-11T10:38:12.124Z,6.026845637583893
2023-09-11T10:42:23.322Z,7.570469798657718
2023-09-11T10:45:57.743Z,7.140939597315437
2023-09-11T10:49:17.098Z,6.644295302013423
2023-09-11T10:53:12.527Z,5.946308724832215
2023-09-11T10:56:31.796Z,8.657718120805368
2023-09-11T10:59:51.280Z,4.993288590604027
2023-09-11T11:03:10.895Z,7.295302013422819
2023-09-11T11:06:30.842Z,6.120805369127517
2023-09-11T11:09:51.094Z,8.812080536912752
2023-09-11T11:13:11.005Z,7.328859060402684
2023-09-11T11:16:30.718Z,6.865771812080537
2023-09-11T11:21:30.717Z,7.342281879194631
2023-09-11T11:24:49.581Z,5.583892617449664
2023-09-11T11:28:09.351Z,7.02013422818792
2023-09-11T11:32:49.734Z,5.25503355704698
2023-09-11T11:36:09.962Z,6.932885906040268
2023-09-11T11:39:29.400Z,5.261744966442953
2023-09-11T11:42:48.991Z,5.563758389261745
2023-09-11T11:46:08.451Z,6.791946308724833
2023-09-11T11:49:28.041Z,5.583892617449664
2023-09-11T11:52:47.993Z,4.6375838926174495
2023-09-11T11:57:39.754Z,5.046979865771812
2023-09-11T12:00:59.535Z,8.315436241610739
2023-09-11T12:04:32.129Z,7.97986577181208
2023-09-11T12:07:58.451Z,7.348993288590604
2023-09-11T12:11:21.218Z,7.6644295302013425
2023-09-11T12:14:40.617Z,6.067114093959732
2023-09-11T12:18:00.266Z,6.167785234899329
2023-09-11T12:22:06.729Z,6.308724832214765
2023-09-11T12:25:27.971Z,6.926174496644295
2023-09-11T12:28:48.017Z,6.0134228187919465
2023-09-11T12:32:08.026Z,4.208053691275167
2023-09-11T12:35:27.906Z,5.899328859060403
2023-09-11T12:38:46.876Z,6.053691275167785
2023-09-11T12:42:06.475Z,6.8120805369127515
2023-09-11T12:45:25.200Z,3.51006711409396
2023-09-11T12:48:45.768Z,4.067114093959732
2023-09-11T12:52:05.591Z,5.8120805369127515
2023-09-11T12:55:25.261Z,5.697986577181208
2023-09-11T12:58:44.590Z,6.0134228187919465
2023-09-11T13:02:04.085Z,4.449664429530201
2023-09-11T13:06:48.479Z,6.651006711409396
2023-09-11T13:13:05.405Z,3.9328859060402683
2023-09-11T13:16:24.313Z,7.3624161073825505
2023-09-11T13:19:43.852Z,5.798657718120805
2023-09-11T13:23:03.324Z,4.174496644295302
2023-09-11T13:26:22.795Z,4.355704697986577
2023-09-11T13:29:42.535Z,5.275167785234899
2023-09-11T13:33:02.644Z,5.993288590604027
2023-09-11T13:36:21.437Z,5.671140939597316
2023-09-11T13:39:40.911Z,3.865771812080537
2023-09-11T13:44:29.664Z,6.523489932885906
2023-09-11T13:47:49.434Z,6.026845637583893
2023-09-11T13:51:09.278Z,5.322147651006712
2023-09-11T13:54:28.291Z,6.268456375838926
2023-09-11T14:00:33.153Z,4.442953020134228
2023-09-11T14:03:53.128Z,2.2013422818791946
2023-09-11T14:07:12.407Z,3.0604026845637584
2023-09-11T14:12:21.302Z,6.369127516778524
2023-09-11T14:15:40.809Z,3.6778523489932886
2023-09-11T14:21:19.996Z,5.315436241610739
2023-09-11T14:24:39.141Z,7.442953020134228
2023-09-11T14:27:59.213Z,4.859060402684563
2023-09-11T14:31:18.706Z,5.644295302013423
2023-09-11T14:34:38.896Z,5.771812080536913
2023-09-11T14:37:57.950Z,5.100671140939597
2023-09-11T14:41:17.545Z,5.375838926174497
2023-09-11T14:44:37.306Z,4.644295302013423
2023-09-11T14:47:57.480Z,6.751677852348993
2023-09-11T14:51:16.900Z,6.167785234899329
2023-09-11T14:54:51.227Z,4.140939597315437
2023-09-11T14:58:13.544Z,5.966442953020135
2023-09-11T15:01:33.413Z,4.731543624161074
2023-09-11T15:04:53.078Z,4.731543624161074
2023-09-11T15:08:13.290Z,6.516778523489933
2023-09-11T15:11:32.394Z,6.040268456375839
2023-09-11T15:14:52.180Z,5.825503355704698
2023-09-11T15:18:12.399Z,8.87248322147651
2023-09-11T15:21:32.319Z,7.268456375838926
2023-09-11T15:24:52.419Z,6.248322147651007
2023-09-11T15:28:12.098Z,6.993288590604027
2023-09-11T15:34:26.769Z,6.966442953020135
2023-09-11T15:37:46.491Z,4.530201342281879
2023-09-11T15:41:05.824Z,7.966442953020135
2023-09-11T15:44:25.730Z,4.3624161073825505
2023-09-11T15:47:45.497Z,4.859060402684563
2023-09-11T15:51:05.379Z,5.489932885906041
2023-09-11T15:54:25.004Z,8.134228187919463
2023-09-11T15:58:32.551Z,6.865771812080537
2023-09-11T16:01:52.133Z,5.181208053691275
2023-09-11T16:07:03.117Z,7.275167785234899
2023-09-11T16:10:22.692Z,4.093959731543624
2023-09-11T16:13:41.473Z,4.496644295302014
2023-09-11T16:17:01.532Z,4.5369127516778525
2023-09-11T16:20:20.909Z,5.375838926174497
2023-09-11T16:23:40.284Z,7.060402684563758
2023-09-11T16:26:59.178Z,10.979865771812081
2023-09-11T16:30:18.744Z,11.120805369127517
2023-09-11T16:43:03.055Z,7.993288590604027
2023-09-11T16:46:22.825Z,4.469798657718121
2023-09-11T16:49:42.184Z,6.671140939597316
2023-09-11T16:53:02.278Z,3.8120805369127515
2023-09-11T16:56:21.459Z,7.6375838926174495
2023-09-11T16:59:41.336Z,7.382550335570469
2023-09-11T17:03:01.697Z,6.25503355704698
2023-09-11T17:06:21.371Z,4.416107382550336
2023-09-11T17:09:41.292Z,6.3624161073825505
2023-09-11T17:13:01.615Z,5.87248322147651
2023-09-11T17:16:21.107Z,5.026845637583893
2023-09-11T17:19:40.779Z,6.348993288590604
2023-09-11T17:23:00.669Z,4.100671140939597
2023-09-11T17:26:28.805Z,5.429530201342282
2023-09-11T17:29:48.964Z,3.6577181208053693
2023-09-11T17:33:10.604Z,6.469798657718121
2023-09-11T17:36:32.306Z,7.228187919463087
2023-09-11T17:39:51.924Z,4.067114093959732
2023-09-11T17:43:11.200Z,6.610738255033557
2023-09-11T17:46:30.987Z,6.114093959731544
2023-09-11T17:49:51.050Z,7.590604026845638
2023-09-11T17:53:10.328Z,5.080536912751678
2023-09-11T17:56:29.510Z,4.577181208053691
2023-09-11T17:59:48.720Z,6.953020134228188
2023-09-11T18:03:08.648Z,7.469798657718121
2023-09-11T18:06:28.387Z,4.906040268456376
2023-09-11T18:12:04.217Z,5.456375838926174
2023-09-11T18:15:24.223Z,6.10738255033557
2023-09-11T18:21:20.723Z,7.577181208053691
2023-09-11T18:24:40.230Z,6.208053691275167
2023-09-11T18:28:00.454Z,7.738255033557047
2023-09-11T18:33:54.260Z,5.570469798657718
2023-09-11T18:37:13.782Z,6.409395973154362
2023-09-11T18:40:33.364Z,6.677852348993288
2023-09-11T18:43:53.365Z,7.543624161073826
2023-09-11T18:47:13.124Z,6.778523489932886
2023-09-11T18:50:32.189Z,6.8120805369127515
2023-09-11T18:53:52.296Z,7.510067114093959
2023-09-11T18:57:11.073Z,8.046979865771812
2023-09-11T19:00:30.861Z,5.597315436241611
2023-09-11T19:06:55.226Z,9.85234899328859
2023-09-11T19:10:14.391Z,7.89261744966443
2023-09-11T19:13:34.085Z,9.731543624161073
2023-09-11T19:16:59.381Z,11.36241610738255
2023-09-11T19:20:18.858Z,10.738255033557047
2023-09-11T19:24:00.913Z,13.523489932885907
2023-09-11T19:29:00.072Z,8.483221476510067
2023-09-11T19:38:46.040Z,14.422818791946309
2023-09-11T19:51:59.296Z,14.134228187919463
2023-09-11T19:57:08.773Z,14.302013422818792
2023-09-11T20:03:07.310Z,13.06711409395973
2023-09-11T20:06:27.591Z,10.664429530201343
2023-09-11T20:09:47.694Z,10.939597315436242
2023-09-11T20:13:07.219Z,10.563758389261745
2023-09-11T20:16:26.016Z,9.087248322147651
2023-09-11T20:19:46.014Z,8.10738255033557
2023-09-11T20:23:06.140Z,9.335570469798657
2023-09-11T20:26:25.945Z,6.697986577181208
2023-09-11T20:31:46.210Z,6.751677852348993
2023-09-11T20:35:47.220Z,7.859060402684563
2023-09-11T20:39:07.503Z,6.208053691275167
2023-09-11T20:42:27.695Z,7.100671140939597
2023-09-11T20:45:47.323Z,7.879194630872483
2023-09-11T20:49:07.227Z,9.979865771812081
2023-09-11T20:52:26.605Z,7.785234899328859
2023-09-11T20:55:45.980Z,5.402684563758389
2023-09-11T20:59:05.852Z,7.966442953020135
2023-09-11T21:03:45.338Z,6.23489932885906
2023-09-11T21:07:57.212Z,7.798657718120805
2023-09-11T21:11:16.597Z,8.51006711409396
2023-09-11T21:14:36.274Z,7.516778523489933
2023-09-11T21:17:56.527Z,10.36241610738255
2023-09-11T21:21:16.409Z,7.791946308724833
2023-09-11T21:24:44.320Z,9.422818791946309
2023-09-11T21:28:03.285Z,7.1610738255033555
2023-09-11T21:31:23.174Z,5.885906040268456
2023-09-11T21:34:43.155Z,8.120805369127517
2023-09-11T21:38:03.235Z,9.61744966442953
2023-09-11T21:45:12.639Z,9.604026845637584
2023-09-11T21:53:05.500Z,6.604026845637584
2023-09-11T21:56:25.074Z,9.04026845637584
2023-09-11T21:59:45.179Z,6.456375838926174
2023-09-11T22:03:05.499Z,6.328859060402684
2023-09-11T22:06:46.026Z,9.664429530201343
2023-09-11T22:10:05.895Z,8.630872483221477
2023-09-11T22:13:25.165Z,10.40268456375839
2023-09-11T22:16:44.600Z,6.966442953020135
2023-09-11T22:20:05.755Z,13.020134228187919
2023-09-11T22:23:40.961Z,12.684563758389261
2023-09-11T22:30:19.174Z,12.335570469798657
2023-09-11T22:36:23.597Z,12.348993288590604
2023-09-11T22:39:43.162Z,12.677852348993289
2023-09-11T22:43:03.454Z,16.523489932885905
2023-09-11T22:46:23.478Z,16.503355704697988
2023-09-11T22:49:43.100Z,18.80536912751678
2023-09-11T22:53:03.179Z,15.758389261744966
2023-09-11T22:56:23.072Z,16.22818791946309
2023-09-11T22:59:42.558Z,19.08053691275168
2023-09-11T23:03:02.126Z,16.610738255033556
2023-09-11T23:06:22.247Z,17.523489932885905
2023-09-11T23:09:41.683Z,20.879194630872483
2023-09-11T23:13:01.381Z,21.23489932885906
2023-09-11T23:16:20.871Z,18.44295302013423
2023-09-11T23:19:40.621Z,21.315436241610737
2023-09-11T23:23:00.719Z,33.033557046979865
2023-09-11T23:26:19.582Z,34.08724832214765
2023-09-11T23:29:39.054Z,36.053691275167786
2023-09-11T23:32:59.456Z,34.76510067114094
2023-09-11T23:38:33.059Z,29.36241610738255
2023-09-11T23:41:53.664Z,40.261744966442954
2023-09-11T23:45:13.078Z,36.97315436241611
2023-09-11T23:48:32.961Z,33.899328859060404
2023-09-11T23:51:53.010Z,37.84563758389262
2023-09-11T23:55:12.548Z,39.033557046979865
2023-09-11T23:58:32.381Z,38.88590604026846
